This is the latest recevied weather packets stored in our database for station/object OE-11138. If no packets are shown the sender has not sent any weather packets the latest 10 day(s).
| Time | Temp. | Humidity | Pressure | Rain* | Wind** | Luminosity | Snow |
|---|---|---|---|---|---|---|---|
| 1788559525 | 12.78° C | 61% | 719.3 hPa | 0 mm | - | 0 W/m² | - |
| 1788558925 | 13.33° C | 59% | 719.4 hPa | 0 mm | - | 0 W/m² | - |
| 1788558098 | 13.89° C | 57% | 719.3 hPa | 0 mm | - | 0 W/m² | - |
| 1788557725 | 13.89° C | 56% | 719.3 hPa | 0 mm | - | 0 W/m² | - |
| 1788556299 | 13.89° C | 60% | 719.3 hPa | 0 mm | - | 0 W/m² | - |
| 1788552699 | 15° C | 52% | 719.5 hPa | 0 mm | - | 0 W/m² | - |
| 1788552324 | 15° C | 52% | 719.6 hPa | 0 mm | - | 0 W/m² | - |
| 1788551727 | 15° C | 52% | 719.6 hPa | 0 mm | - | 0 W/m² | - |
| 1788550525 | 15° C | 50% | 719.9 hPa | 0 mm | - | 0 W/m² | - |
| 1788549098 | 15.56° C | 51% | 719.7 hPa | 0 mm | - | 0 W/m² | - |
| 1788548725 | 15.56° C | 51% | 719.7 hPa | 0 mm | - | 0 W/m² | - |
| 1788546925 | 15.56° C | 48% | 719.7 hPa | 0 mm | - | 0 W/m² | - |
| 1788545497 | 16.11° C | 47% | 719.7 hPa | 0 mm | - | 0 W/m² | - |
| 1788544525 | 16.11° C | 48% | 719.5 hPa | 0 mm | - | 6 W/m² | - |
| 1788543699 | 16.11° C | 48% | 719.6 hPa | 0 mm | - | 12 W/m² | - |
| 1788543325 | 16.11° C | 47% | 719.6 hPa | 0 mm | - | 12 W/m² | - |
| 1788541898 | 16.11° C | 47% | 719.7 hPa | 0 mm | - | 18 W/m² | - |
| 1788540925 | 16.67° C | 46% | 719.8 hPa | 0 mm | - | 24 W/m² | - |
| 1788539725 | 16.67° C | 44% | 719.9 hPa | 0 mm | - | 134 W/m² | - |
| 1788539125 | 17.22° C | 42% | 720.1 hPa | 0 mm | - | 261 W/m² | - |
| 1788538299 | 17.78° C | 43% | 720.2 hPa | 0 mm | - | 291 W/m² | - |
| 1788537925 | 17.78° C | 42% | 720.2 hPa | 0 mm | - | 322 W/m² | - |
| 1788537325 | 17.78° C | 41% | 720.3 hPa | 0 mm | - | 352 W/m² | - |
| 1788536125 | 17.78° C | 40% | 720.3 hPa | 0 mm | - | 413 W/m² | - |
| 1788535525 | 17.78° C | 40% | 720.4 hPa | 0 mm | - | 437 W/m² | - |
* Rain latest hour (hover to see other rain measurements)
** Current wind speed in m/s (hover to see current wind gust speed)